sensor_id;sensor_type;location;lat;lon;timestamp;P1;durP1;ratioP1;P2;durP2;ratioP2
2622;SDS011;1321;48.690;9.022;2023-02-28T00:01:42;2.58;;;2.38;;
2622;SDS011;1321;48.690;9.022;2023-02-28T00:04:10;2.58;;;2.20;;
2622;SDS011;1321;48.690;9.022;2023-02-28T00:06:40;2.42;;;2.25;;
2622;SDS011;1321;48.690;9.022;2023-02-28T00:09:09;2.80;;;2.47;;
2622;SDS011;1321;48.690;9.022;2023-02-28T00:11:37;2.63;;;2.42;;
2622;SDS011;1321;48.690;9.022;2023-02-28T00:14:05;2.70;;;2.50;;
2622;SDS011;1321;48.690;9.022;2023-02-28T00:16:34;2.90;;;2.70;;
2622;SDS011;1321;48.690;9.022;2023-02-28T00:19:02;2.85;;;2.65;;
2622;SDS011;1321;48.690;9.022;2023-02-28T00:21:30;2.58;;;2.42;;
2622;SDS011;1321;48.690;9.022;2023-02-28T00:23:59;2.55;;;2.45;;
2622;SDS011;1321;48.690;9.022;2023-02-28T00:26:28;2.40;;;2.30;;
2622;SDS011;1321;48.690;9.022;2023-02-28T00:28:56;2.90;;;2.70;;
2622;SDS011;1321;48.690;9.022;2023-02-28T00:31:24;2.97;;;2.42;;
2622;SDS011;1321;48.690;9.022;2023-02-28T00:33:52;2.83;;;2.50;;
2622;SDS011;1321;48.690;9.022;2023-02-28T00:36:21;2.50;;;2.40;;
2622;SDS011;1321;48.690;9.022;2023-02-28T00:38:49;2.92;;;2.72;;
2622;SDS011;1321;48.690;9.022;2023-02-28T00:41:18;2.55;;;2.35;;
2622;SDS011;1321;48.690;9.022;2023-02-28T00:43:46;3.60;;;2.70;;
2622;SDS011;1321;48.690;9.022;2023-02-28T00:46:14;3.05;;;2.83;;
2622;SDS011;1321;48.690;9.022;2023-02-28T00:48:43;3.42;;;2.50;;
2622;SDS011;1321;48.690;9.022;2023-02-28T00:51:11;3.17;;;2.88;;
2622;SDS011;1321;48.690;9.022;2023-02-28T00:53:39;2.45;;;2.35;;
2622;SDS011;1321;48.690;9.022;2023-02-28T00:56:07;2.80;;;2.65;;
2622;SDS011;1321;48.690;9.022;2023-02-28T00:58:36;3.10;;;2.80;;
2622;SDS011;1321;48.690;9.022;2023-02-28T01:01:05;2.50;;;2.40;;
2622;SDS011;1321;48.690;9.022;2023-02-28T01:03:33;2.38;;;2.20;;
2622;SDS011;1321;48.690;9.022;2023-02-28T01:06:01;2.85;;;2.70;;
2622;SDS011;1321;48.690;9.022;2023-02-28T01:08:30;2.42;;;2.28;;
2622;SDS011;1321;48.690;9.022;2023-02-28T01:10:58;2.45;;;2.35;;
2622;SDS011;1321;48.690;9.022;2023-02-28T01:13:37;3.35;;;3.03;;
2622;SDS011;1321;48.690;9.022;2023-02-28T01:16:05;2.58;;;2.47;;
2622;SDS011;1321;48.690;9.022;2023-02-28T01:18:35;2.88;;;2.78;;
2622;SDS011;1321;48.690;9.022;2023-02-28T01:21:03;2.38;;;2.28;;
2622;SDS011;1321;48.690;9.022;2023-02-28T01:23:32;2.72;;;2.53;;
2622;SDS011;1321;48.690;9.022;2023-02-28T01:26:03;2.90;;;2.70;;
2622;SDS011;1321;48.690;9.022;2023-02-28T01:28:32;3.30;;;2.85;;
2622;SDS011;1321;48.690;9.022;2023-02-28T01:31:01;2.63;;;2.42;;
2622;SDS011;1321;48.690;9.022;2023-02-28T01:33:30;2.92;;;2.72;;
2622;SDS011;1321;48.690;9.022;2023-02-28T01:35:58;6.88;;;3.85;;
2622;SDS011;1321;48.690;9.022;2023-02-28T01:38:27;2.92;;;2.67;;
2622;SDS011;1321;48.690;9.022;2023-02-28T01:40:55;2.88;;;2.67;;
2622;SDS011;1321;48.690;9.022;2023-02-28T01:43:25;3.50;;;3.30;;
2622;SDS011;1321;48.690;9.022;2023-02-28T01:45:55;2.85;;;2.70;;
2622;SDS011;1321;48.690;9.022;2023-02-28T01:48:26;3.28;;;3.08;;
2622;SDS011;1321;48.690;9.022;2023-02-28T01:51:00;3.00;;;2.80;;
2622;SDS011;1321;48.690;9.022;2023-02-28T01:53:32;3.17;;;3.00;;
2622;SDS011;1321;48.690;9.022;2023-02-28T01:56:05;3.47;;;3.17;;
2622;SDS011;1321;48.690;9.022;2023-02-28T01:58:37;2.88;;;2.63;;
2622;SDS011;1321;48.690;9.022;2023-02-28T02:01:06;3.05;;;2.75;;
2622;SDS011;1321;48.690;9.022;2023-02-28T02:03:35;3.33;;;3.05;;
2622;SDS011;1321;48.690;9.022;2023-02-28T02:06:03;3.50;;;3.30;;
2622;SDS011;1321;48.690;9.022;2023-02-28T02:08:32;3.20;;;3.00;;
2622;SDS011;1321;48.690;9.022;2023-02-28T02:11:00;3.50;;;3.30;;
2622;SDS011;1321;48.690;9.022;2023-02-28T02:13:43;3.92;;;3.60;;
2622;SDS011;1321;48.690;9.022;2023-02-28T02:16:38;3.20;;;3.00;;
2622;SDS011;1321;48.690;9.022;2023-02-28T02:19:26;2.85;;;2.75;;
2622;SDS011;1321;48.690;9.022;2023-02-28T02:25:25;3.00;;;2.80;;
2622;SDS011;1321;48.690;9.022;2023-02-28T02:28:10;3.42;;;3.13;;
2622;SDS011;1321;48.690;9.022;2023-02-28T02:31:08;3.03;;;2.83;;
2622;SDS011;1321;48.690;9.022;2023-02-28T02:34:08;3.78;;;3.50;;
2622;SDS011;1321;48.690;9.022;2023-02-28T02:36:58;3.25;;;3.10;;
2622;SDS011;1321;48.690;9.022;2023-02-28T02:39:36;3.88;;;3.58;;
2622;SDS011;1321;48.690;9.022;2023-02-28T02:42:13;3.40;;;3.20;;
2622;SDS011;1321;48.690;9.022;2023-02-28T02:44:43;3.67;;;3.47;;
2622;SDS011;1321;48.690;9.022;2023-02-28T02:47:15;4.18;;;3.88;;
2622;SDS011;1321;48.690;9.022;2023-02-28T02:49:48;3.90;;;3.60;;
2622;SDS011;1321;48.690;9.022;2023-02-28T02:52:20;4.20;;;3.80;;
2622;SDS011;1321;48.690;9.022;2023-02-28T02:54:52;5.00;;;3.70;;
2622;SDS011;1321;48.690;9.022;2023-02-28T02:57:23;4.55;;;4.25;;
2622;SDS011;1321;48.690;9.022;2023-02-28T02:59:54;3.53;;;3.33;;
2622;SDS011;1321;48.690;9.022;2023-02-28T03:02:24;4.40;;;3.80;;
2622;SDS011;1321;48.690;9.022;2023-02-28T03:05:02;3.78;;;3.58;;
2622;SDS011;1321;48.690;9.022;2023-02-28T03:07:33;4.00;;;3.70;;
2622;SDS011;1321;48.690;9.022;2023-02-28T03:10:02;4.95;;;3.50;;
2622;SDS011;1321;48.690;9.022;2023-02-28T03:12:32;3.72;;;3.30;;
2622;SDS011;1321;48.690;9.022;2023-02-28T03:15:09;3.70;;;3.40;;
2622;SDS011;1321;48.690;9.022;2023-02-28T03:17:46;3.55;;;3.30;;
2622;SDS011;1321;48.690;9.022;2023-02-28T03:20:26;5.03;;;4.65;;
2622;SDS011;1321;48.690;9.022;2023-02-28T03:23:13;4.40;;;4.20;;
2622;SDS011;1321;48.690;9.022;2023-02-28T03:25:48;4.13;;;3.80;;
2622;SDS011;1321;48.690;9.022;2023-02-28T03:28:25;5.00;;;4.60;;
2622;SDS011;1321;48.690;9.022;2023-02-28T03:30:59;4.90;;;4.57;;
2622;SDS011;1321;48.690;9.022;2023-02-28T03:33:31;4.85;;;3.90;;
2622;SDS011;1321;48.690;9.022;2023-02-28T03:36:06;5.20;;;4.80;;
2622;SDS011;1321;48.690;9.022;2023-02-28T03:38:40;4.97;;;4.57;;
2622;SDS011;1321;48.690;9.022;2023-02-28T03:41:12;6.43;;;4.93;;
2622;SDS011;1321;48.690;9.022;2023-02-28T03:43:45;4.60;;;4.30;;
2622;SDS011;1321;48.690;9.022;2023-02-28T03:46:17;5.43;;;4.40;;
2622;SDS011;1321;48.690;9.022;2023-02-28T03:48:50;4.60;;;4.20;;
2622;SDS011;1321;48.690;9.022;2023-02-28T03:51:24;4.40;;;4.10;;
2622;SDS011;1321;48.690;9.022;2023-02-28T03:53:57;5.30;;;4.80;;
2622;SDS011;1321;48.690;9.022;2023-02-28T03:56:31;4.70;;;4.40;;
2622;SDS011;1321;48.690;9.022;2023-02-28T03:59:04;4.50;;;4.30;;
2622;SDS011;1321;48.690;9.022;2023-02-28T04:01:38;4.85;;;4.65;;
2622;SDS011;1321;48.690;9.022;2023-02-28T04:04:09;5.28;;;4.97;;
2622;SDS011;1321;48.690;9.022;2023-02-28T04:06:39;5.78;;;5.28;;
2622;SDS011;1321;48.690;9.022;2023-02-28T04:09:09;8.00;;;5.05;;
2622;SDS011;1321;48.690;9.022;2023-02-28T04:11:38;6.18;;;5.38;;
2622;SDS011;1321;48.690;9.022;2023-02-28T04:14:09;5.03;;;4.72;;
2622;SDS011;1321;48.690;9.022;2023-02-28T04:16:38;6.05;;;5.75;;
2622;SDS011;1321;48.690;9.022;2023-02-28T04:19:08;6.30;;;5.90;;
2622;SDS011;1321;48.690;9.022;2023-02-28T04:21:38;6.50;;;6.07;;
2622;SDS011;1321;48.690;9.022;2023-02-28T04:24:10;6.45;;;6.05;;
2622;SDS011;1321;48.690;9.022;2023-02-28T04:26:41;7.00;;;6.55;;
2622;SDS011;1321;48.690;9.022;2023-02-28T04:29:11;6.15;;;5.85;;
2622;SDS011;1321;48.690;9.022;2023-02-28T04:31:40;6.50;;;6.00;;
2622;SDS011;1321;48.690;9.022;2023-02-28T04:34:08;6.85;;;6.35;;
2622;SDS011;1321;48.690;9.022;2023-02-28T04:36:37;7.07;;;6.60;;
2622;SDS011;1321;48.690;9.022;2023-02-28T04:39:06;7.20;;;6.80;;
2622;SDS011;1321;48.690;9.022;2023-02-28T04:41:35;6.70;;;6.40;;
2622;SDS011;1321;48.690;9.022;2023-02-28T04:44:04;6.68;;;6.38;;
2622;SDS011;1321;48.690;9.022;2023-02-28T04:46:32;6.80;;;6.40;;
2622;SDS011;1321;48.690;9.022;2023-02-28T04:49:00;7.05;;;6.43;;
2622;SDS011;1321;48.690;9.022;2023-02-28T04:51:28;7.03;;;6.53;;
2622;SDS011;1321;48.690;9.022;2023-02-28T04:53:56;6.90;;;6.40;;
2622;SDS011;1321;48.690;9.022;2023-02-28T04:56:26;6.50;;;6.10;;
2622;SDS011;1321;48.690;9.022;2023-02-28T04:58:54;6.28;;;5.93;;
2622;SDS011;1321;48.690;9.022;2023-02-28T05:01:23;7.05;;;6.45;;
2622;SDS011;1321;48.690;9.022;2023-02-28T05:03:54;6.53;;;6.13;;
2622;SDS011;1321;48.690;9.022;2023-02-28T05:06:24;6.75;;;6.28;;
2622;SDS011;1321;48.690;9.022;2023-02-28T05:08:54;7.22;;;6.80;;
2622;SDS011;1321;48.690;9.022;2023-02-28T05:11:23;6.55;;;6.15;;
2622;SDS011;1321;48.690;9.022;2023-02-28T05:13:54;6.90;;;6.47;;
2622;SDS011;1321;48.690;9.022;2023-02-28T05:16:23;7.50;;;6.90;;
2622;SDS011;1321;48.690;9.022;2023-02-28T05:18:51;7.55;;;7.15;;
2622;SDS011;1321;48.690;9.022;2023-02-28T05:21:23;7.22;;;6.72;;
2622;SDS011;1321;48.690;9.022;2023-02-28T05:23:54;7.60;;;7.03;;
2622;SDS011;1321;48.690;9.022;2023-02-28T05:26:23;7.63;;;7.10;;
2622;SDS011;1321;48.690;9.022;2023-02-28T05:28:52;6.70;;;6.30;;
2622;SDS011;1321;48.690;9.022;2023-02-28T05:31:22;6.82;;;6.28;;
2622;SDS011;1321;48.690;9.022;2023-02-28T05:33:50;6.72;;;6.32;;
2622;SDS011;1321;48.690;9.022;2023-02-28T05:36:19;7.43;;;6.78;;
2622;SDS011;1321;48.690;9.022;2023-02-28T05:38:47;6.88;;;6.45;;
2622;SDS011;1321;48.690;9.022;2023-02-28T05:41:16;7.43;;;6.88;;
2622;SDS011;1321;48.690;9.022;2023-02-28T05:43:45;6.60;;;6.30;;
2622;SDS011;1321;48.690;9.022;2023-02-28T05:46:16;7.85;;;7.20;;
2622;SDS011;1321;48.690;9.022;2023-02-28T05:48:45;7.25;;;6.65;;
2622;SDS011;1321;48.690;9.022;2023-02-28T05:51:15;7.22;;;6.80;;
2622;SDS011;1321;48.690;9.022;2023-02-28T05:53:43;7.10;;;6.70;;
2622;SDS011;1321;48.690;9.022;2023-02-28T05:56:12;7.97;;;7.10;;
2622;SDS011;1321;48.690;9.022;2023-02-28T05:58:40;7.00;;;6.40;;
2622;SDS011;1321;48.690;9.022;2023-02-28T06:01:33;7.30;;;6.90;;
2622;SDS011;1321;48.690;9.022;2023-02-28T06:04:03;7.55;;;6.95;;
2622;SDS011;1321;48.690;9.022;2023-02-28T06:06:33;9.40;;;8.65;;
2622;SDS011;1321;48.690;9.022;2023-02-28T06:09:02;8.60;;;7.93;;
2622;SDS011;1321;48.690;9.022;2023-02-28T06:11:31;8.25;;;7.55;;
2622;SDS011;1321;48.690;9.022;2023-02-28T06:14:00;7.65;;;7.25;;
2622;SDS011;1321;48.690;9.022;2023-02-28T06:16:31;8.80;;;8.10;;
2622;SDS011;1321;48.690;9.022;2023-02-28T06:19:01;7.75;;;7.35;;
2622;SDS011;1321;48.690;9.022;2023-02-28T06:21:31;8.20;;;7.60;;
2622;SDS011;1321;48.690;9.022;2023-02-28T06:23:59;8.07;;;7.55;;
2622;SDS011;1321;48.690;9.022;2023-02-28T06:26:27;8.52;;;8.00;;
2622;SDS011;1321;48.690;9.022;2023-02-28T06:28:55;7.93;;;7.28;;
2622;SDS011;1321;48.690;9.022;2023-02-28T06:31:23;8.50;;;7.82;;
2622;SDS011;1321;48.690;9.022;2023-02-28T06:33:53;8.55;;;8.05;;
2622;SDS011;1321;48.690;9.022;2023-02-28T06:36:22;8.90;;;8.30;;
2622;SDS011;1321;48.690;9.022;2023-02-28T06:38:50;8.18;;;7.70;;
2622;SDS011;1321;48.690;9.022;2023-02-28T06:41:21;10.48;;;9.70;;
2622;SDS011;1321;48.690;9.022;2023-02-28T06:43:50;9.07;;;8.35;;
2622;SDS011;1321;48.690;9.022;2023-02-28T06:46:19;9.43;;;8.63;;
2622;SDS011;1321;48.690;9.022;2023-02-28T06:48:47;8.35;;;7.75;;
2622;SDS011;1321;48.690;9.022;2023-02-28T06:51:17;8.85;;;8.35;;
2622;SDS011;1321;48.690;9.022;2023-02-28T06:53:48;9.02;;;8.48;;
2622;SDS011;1321;48.690;9.022;2023-02-28T06:56:17;9.20;;;8.50;;
2622;SDS011;1321;48.690;9.022;2023-02-28T06:58:47;9.02;;;8.43;;
2622;SDS011;1321;48.690;9.022;2023-02-28T07:01:16;8.57;;;8.07;;
2622;SDS011;1321;48.690;9.022;2023-02-28T07:03:45;9.75;;;9.05;;
2622;SDS011;1321;48.690;9.022;2023-02-28T07:06:19;9.00;;;8.38;;
2622;SDS011;1321;48.690;9.022;2023-02-28T07:08:49;9.40;;;8.77;;
2622;SDS011;1321;48.690;9.022;2023-02-28T07:11:18;9.23;;;8.63;;
2622;SDS011;1321;48.690;9.022;2023-02-28T07:13:47;9.38;;;8.68;;
2622;SDS011;1321;48.690;9.022;2023-02-28T07:16:15;8.80;;;8.10;;
2622;SDS011;1321;48.690;9.022;2023-02-28T07:18:44;9.75;;;8.90;;
2622;SDS011;1321;48.690;9.022;2023-02-28T07:21:12;9.95;;;9.25;;
2622;SDS011;1321;48.690;9.022;2023-02-28T07:23:41;9.25;;;8.65;;
2622;SDS011;1321;48.690;9.022;2023-02-28T07:26:11;8.38;;;7.82;;
2622;SDS011;1321;48.690;9.022;2023-02-28T07:28:41;9.07;;;8.38;;
2622;SDS011;1321;48.690;9.022;2023-02-28T07:31:10;8.90;;;8.20;;
2622;SDS011;1321;48.690;9.022;2023-02-28T07:33:40;9.38;;;8.45;;
2622;SDS011;1321;48.690;9.022;2023-02-28T07:36:09;9.35;;;8.45;;
2622;SDS011;1321;48.690;9.022;2023-02-28T07:38:43;8.60;;;8.00;;
2622;SDS011;1321;48.690;9.022;2023-02-28T07:41:14;9.02;;;8.32;;
2622;SDS011;1321;48.690;9.022;2023-02-28T07:43:42;9.40;;;8.60;;
2622;SDS011;1321;48.690;9.022;2023-02-28T07:46:12;8.85;;;8.15;;
2622;SDS011;1321;48.690;9.022;2023-02-28T07:48:42;10.63;;;9.00;;
2622;SDS011;1321;48.690;9.022;2023-02-28T07:51:11;8.35;;;7.65;;
2622;SDS011;1321;48.690;9.022;2023-02-28T07:53:39;8.70;;;8.00;;
2622;SDS011;1321;48.690;9.022;2023-02-28T07:56:09;9.55;;;8.75;;
2622;SDS011;1321;48.690;9.022;2023-02-28T07:58:37;9.07;;;8.27;;
2622;SDS011;1321;48.690;9.022;2023-02-28T08:01:06;8.68;;;7.88;;
2622;SDS011;1321;48.690;9.022;2023-02-28T08:03:35;9.30;;;8.60;;
2622;SDS011;1321;48.690;9.022;2023-02-28T08:06:05;9.40;;;8.73;;
2622;SDS011;1321;48.690;9.022;2023-02-28T08:08:34;9.05;;;8.25;;
2622;SDS011;1321;48.690;9.022;2023-02-28T08:11:02;7.95;;;7.35;;
2622;SDS011;1321;48.690;9.022;2023-02-28T08:13:32;9.65;;;8.68;;
2622;SDS011;1321;48.690;9.022;2023-02-28T08:16:02;8.70;;;7.97;;
2622;SDS011;1321;48.690;9.022;2023-02-28T08:18:32;9.18;;;8.38;;
2622;SDS011;1321;48.690;9.022;2023-02-28T08:21:05;9.10;;;8.30;;
2622;SDS011;1321;48.690;9.022;2023-02-28T08:23:33;9.30;;;8.40;;
2622;SDS011;1321;48.690;9.022;2023-02-28T08:26:02;10.35;;;9.45;;
2622;SDS011;1321;48.690;9.022;2023-02-28T08:28:32;9.75;;;8.85;;
2622;SDS011;1321;48.690;9.022;2023-02-28T08:31:00;9.05;;;8.30;;
2622;SDS011;1321;48.690;9.022;2023-02-28T08:33:34;9.65;;;8.57;;
2622;SDS011;1321;48.690;9.022;2023-02-28T08:36:02;10.00;;;9.30;;
2622;SDS011;1321;48.690;9.022;2023-02-28T08:38:31;9.27;;;8.52;;
2622;SDS011;1321;48.690;9.022;2023-02-28T08:40:59;9.40;;;8.63;;
2622;SDS011;1321;48.690;9.022;2023-02-28T08:43:29;8.80;;;8.10;;
2622;SDS011;1321;48.690;9.022;2023-02-28T08:45:58;9.10;;;8.38;;
2622;SDS011;1321;48.690;9.022;2023-02-28T08:48:28;9.10;;;8.30;;
2622;SDS011;1321;48.690;9.022;2023-02-28T08:50:57;8.23;;;7.63;;
2622;SDS011;1321;48.690;9.022;2023-02-28T08:53:33;11.07;;;9.02;;
2622;SDS011;1321;48.690;9.022;2023-02-28T08:56:02;8.48;;;7.68;;
2622;SDS011;1321;48.690;9.022;2023-02-28T08:58:32;8.50;;;7.70;;
2622;SDS011;1321;48.690;9.022;2023-02-28T09:01:08;9.55;;;8.65;;
2622;SDS011;1321;48.690;9.022;2023-02-28T09:03:38;9.95;;;8.95;;
2622;SDS011;1321;48.690;9.022;2023-02-28T09:06:08;8.85;;;8.00;;
2622;SDS011;1321;48.690;9.022;2023-02-28T09:08:37;10.02;;;9.05;;
2622;SDS011;1321;48.690;9.022;2023-02-28T09:11:06;9.00;;;8.30;;
2622;SDS011;1321;48.690;9.022;2023-02-28T09:13:34;9.20;;;8.35;;
2622;SDS011;1321;48.690;9.022;2023-02-28T09:16:04;9.50;;;8.70;;
2622;SDS011;1321;48.690;9.022;2023-02-28T09:18:35;10.00;;;9.20;;
2622;SDS011;1321;48.690;9.022;2023-02-28T09:21:06;8.23;;;7.72;;
2622;SDS011;1321;48.690;9.022;2023-02-28T09:23:36;9.15;;;8.45;;
2622;SDS011;1321;48.690;9.022;2023-02-28T09:26:05;8.23;;;7.72;;
2622;SDS011;1321;48.690;9.022;2023-02-28T09:28:34;9.00;;;8.30;;
2622;SDS011;1321;48.690;9.022;2023-02-28T09:31:02;9.48;;;8.57;;
2622;SDS011;1321;48.690;9.022;2023-02-28T09:33:31;10.02;;;9.02;;
2622;SDS011;1321;48.690;9.022;2023-02-28T09:36:02;10.07;;;9.25;;
2622;SDS011;1321;48.690;9.022;2023-02-28T09:38:31;9.32;;;8.60;;
2622;SDS011;1321;48.690;9.022;2023-02-28T09:41:00;9.07;;;8.20;;
2622;SDS011;1321;48.690;9.022;2023-02-28T09:43:31;8.82;;;8.13;;
2622;SDS011;1321;48.690;9.022;2023-02-28T09:46:05;9.23;;;8.32;;
2622;SDS011;1321;48.690;9.022;2023-02-28T09:48:41;9.82;;;8.95;;
2622;SDS011;1321;48.690;9.022;2023-02-28T09:51:15;9.23;;;8.40;;
2622;SDS011;1321;48.690;9.022;2023-02-28T09:53:56;9.50;;;8.80;;
2622;SDS011;1321;48.690;9.022;2023-02-28T09:56:28;12.40;;;9.25;;
2622;SDS011;1321;48.690;9.022;2023-02-28T09:59:04;9.25;;;8.38;;
2622;SDS011;1321;48.690;9.022;2023-02-28T10:01:43;10.98;;;9.52;;
2622;SDS011;1321;48.690;9.022;2023-02-28T10:04:23;9.85;;;9.00;;
2622;SDS011;1321;48.690;9.022;2023-02-28T10:07:06;8.40;;;7.68;;
2622;SDS011;1321;48.690;9.022;2023-02-28T10:09:46;9.20;;;8.30;;
2622;SDS011;1321;48.690;9.022;2023-02-28T10:12:19;8.65;;;7.75;;
2622;SDS011;1321;48.690;9.022;2023-02-28T10:14:49;9.70;;;8.80;;
2622;SDS011;1321;48.690;9.022;2023-02-28T10:17:21;9.73;;;8.93;;
2622;SDS011;1321;48.690;9.022;2023-02-28T10:19:54;10.43;;;9.48;;
2622;SDS011;1321;48.690;9.022;2023-02-28T10:22:29;10.10;;;9.20;;
2622;SDS011;1321;48.690;9.022;2023-02-28T10:25:05;9.52;;;8.63;;
2622;SDS011;1321;48.690;9.022;2023-02-28T10:27:44;9.23;;;8.43;;
2622;SDS011;1321;48.690;9.022;2023-02-28T10:30:12;9.15;;;8.35;;
2622;SDS011;1321;48.690;9.022;2023-02-28T10:32:43;9.80;;;9.00;;
2622;SDS011;1321;48.690;9.022;2023-02-28T10:35:17;8.75;;;7.93;;
2622;SDS011;1321;48.690;9.022;2023-02-28T10:37:50;10.02;;;9.20;;
2622;SDS011;1321;48.690;9.022;2023-02-28T10:40:28;9.60;;;8.77;;
2622;SDS011;1321;48.690;9.022;2023-02-28T10:42:59;8.40;;;7.80;;
2622;SDS011;1321;48.690;9.022;2023-02-28T10:45:29;9.05;;;8.23;;
2622;SDS011;1321;48.690;9.022;2023-02-28T10:48:01;9.38;;;8.10;;
2622;SDS011;1321;48.690;9.022;2023-02-28T10:50:37;9.40;;;8.50;;
2622;SDS011;1321;48.690;9.022;2023-02-28T10:53:25;9.40;;;8.60;;
2622;SDS011;1321;48.690;9.022;2023-02-28T10:56:04;9.45;;;8.65;;
2622;SDS011;1321;48.690;9.022;2023-02-28T10:58:46;8.90;;;8.10;;
2622;SDS011;1321;48.690;9.022;2023-02-28T11:01:20;9.43;;;8.63;;
2622;SDS011;1321;48.690;9.022;2023-02-28T11:03:50;10.37;;;9.50;;
2622;SDS011;1321;48.690;9.022;2023-02-28T11:06:20;9.80;;;8.80;;
2622;SDS011;1321;48.690;9.022;2023-02-28T11:08:53;9.10;;;8.40;;
2622;SDS011;1321;48.690;9.022;2023-02-28T11:11:23;9.70;;;8.90;;
2622;SDS011;1321;48.690;9.022;2023-02-28T11:13:55;9.03;;;8.27;;
2622;SDS011;1321;48.690;9.022;2023-02-28T11:16:33;20.97;;;12.47;;
2622;SDS011;1321;48.690;9.022;2023-02-28T11:19:03;9.50;;;8.70;;
2622;SDS011;1321;48.690;9.022;2023-02-28T11:21:34;9.63;;;8.83;;
2622;SDS011;1321;48.690;9.022;2023-02-28T11:24:22;9.77;;;8.87;;
2622;SDS011;1321;48.690;9.022;2023-02-28T11:26:51;10.83;;;9.83;;
2622;SDS011;1321;48.690;9.022;2023-02-28T11:29:21;9.00;;;8.20;;
2622;SDS011;1321;48.690;9.022;2023-02-28T11:32:11;9.00;;;8.20;;
2622;SDS011;1321;48.690;9.022;2023-02-28T11:34:43;9.67;;;8.77;;
2622;SDS011;1321;48.690;9.022;2023-02-28T11:37:14;9.60;;;8.80;;
2622;SDS011;1321;48.690;9.022;2023-02-28T11:39:46;9.30;;;8.50;;
2622;SDS011;1321;48.690;9.022;2023-02-28T11:42:27;9.70;;;8.70;;
2622;SDS011;1321;48.690;9.022;2023-02-28T11:45:11;9.97;;;9.10;;
2622;SDS011;1321;48.690;9.022;2023-02-28T11:47:47;8.83;;;8.03;;
2622;SDS011;1321;48.690;9.022;2023-02-28T11:50:27;10.17;;;9.30;;
2622;SDS011;1321;48.690;9.022;2023-02-28T11:53:14;9.60;;;8.73;;
2622;SDS011;1321;48.690;9.022;2023-02-28T11:55:51;9.40;;;8.70;;
2622;SDS011;1321;48.690;9.022;2023-02-28T11:58:26;8.83;;;8.10;;
2622;SDS011;1321;48.690;9.022;2023-02-28T12:01:03;9.90;;;9.10;;
2622;SDS011;1321;48.690;9.022;2023-02-28T12:03:43;10.20;;;9.30;;
2622;SDS011;1321;48.690;9.022;2023-02-28T12:06:18;9.50;;;8.70;;
2622;SDS011;1321;48.690;9.022;2023-02-28T12:08:55;9.67;;;8.87;;
2622;SDS011;1321;48.690;9.022;2023-02-28T12:11:36;14.53;;;8.80;;
2622;SDS011;1321;48.690;9.022;2023-02-28T12:14:32;9.90;;;9.00;;
2622;SDS011;1321;48.690;9.022;2023-02-28T12:17:25;10.03;;;9.03;;
2622;SDS011;1321;48.690;9.022;2023-02-28T12:20:05;10.67;;;9.60;;
2622;SDS011;1321;48.690;9.022;2023-02-28T12:22:41;10.83;;;9.70;;
2622;SDS011;1321;48.690;9.022;2023-02-28T12:25:22;9.80;;;8.80;;
2622;SDS011;1321;48.690;9.022;2023-02-28T12:28:09;9.70;;;8.90;;
2622;SDS011;1321;48.690;9.022;2023-02-28T12:30:41;10.50;;;9.40;;
2622;SDS011;1321;48.690;9.022;2023-02-28T12:33:17;10.40;;;9.50;;
2622;SDS011;1321;48.690;9.022;2023-02-28T12:35:49;11.30;;;10.20;;
2622;SDS011;1321;48.690;9.022;2023-02-28T12:38:23;9.50;;;8.60;;
2622;SDS011;1321;48.690;9.022;2023-02-28T12:40:54;10.63;;;9.73;;
2622;SDS011;1321;48.690;9.022;2023-02-28T12:43:31;10.23;;;9.33;;
2622;SDS011;1321;48.690;9.022;2023-02-28T12:46:04;9.93;;;9.17;;
2622;SDS011;1321;48.690;9.022;2023-02-28T12:48:38;9.87;;;8.97;;
2622;SDS011;1321;48.690;9.022;2023-02-28T12:51:09;11.30;;;8.80;;
2622;SDS011;1321;48.690;9.022;2023-02-28T12:53:43;9.30;;;8.40;;
2622;SDS011;1321;48.690;9.022;2023-02-28T12:56:23;9.60;;;8.80;;
2622;SDS011;1321;48.690;9.022;2023-02-28T12:59:02;9.23;;;8.43;;
2622;SDS011;1321;48.690;9.022;2023-02-28T13:02:00;9.30;;;8.50;;
2622;SDS011;1321;48.690;9.022;2023-02-28T13:04:52;9.40;;;8.50;;
2622;SDS011;1321;48.690;9.022;2023-02-28T13:10:42;9.33;;;8.50;;
2622;SDS011;1321;48.690;9.022;2023-02-28T13:13:15;9.77;;;8.87;;
2622;SDS011;1321;48.690;9.022;2023-02-28T13:15:59;8.57;;;7.77;;
2622;SDS011;1321;48.690;9.022;2023-02-28T13:18:31;9.40;;;8.70;;
2622;SDS011;1321;48.690;9.022;2023-02-28T13:21:03;9.10;;;8.30;;
2622;SDS011;1321;48.690;9.022;2023-02-28T13:23:38;10.47;;;9.60;;
2622;SDS011;1321;48.690;9.022;2023-02-28T13:26:08;9.43;;;8.63;;
2622;SDS011;1321;48.690;9.022;2023-02-28T13:35:12;10.60;;;9.50;;
2622;SDS011;1321;48.690;9.022;2023-02-28T13:38:16;10.60;;;9.50;;
2622;SDS011;1321;48.690;9.022;2023-02-28T13:44:12;9.63;;;8.90;;
2622;SDS011;1321;48.690;9.022;2023-02-28T13:50:18;10.13;;;9.23;;
2622;SDS011;1321;48.690;9.022;2023-02-28T13:52:53;8.80;;;8.10;;
2622;SDS011;1321;48.690;9.022;2023-02-28T13:55:53;10.70;;;9.10;;
2622;SDS011;1321;48.690;9.022;2023-02-28T13:58:35;9.97;;;9.07;;
2622;SDS011;1321;48.690;9.022;2023-02-28T14:07:19;9.77;;;8.27;;
2622;SDS011;1321;48.690;9.022;2023-02-28T14:09:54;10.80;;;9.60;;
2622;SDS011;1321;48.690;9.022;2023-02-28T14:15:28;9.00;;;8.30;;
2622;SDS011;1321;48.690;9.022;2023-02-28T14:18:24;9.57;;;8.80;;
2622;SDS011;1321;48.690;9.022;2023-02-28T14:20:57;11.43;;;10.40;;
2622;SDS011;1321;48.690;9.022;2023-02-28T14:23:38;9.50;;;8.60;;
2622;SDS011;1321;48.690;9.022;2023-02-28T14:26:13;9.73;;;8.87;;
2622;SDS011;1321;48.690;9.022;2023-02-28T14:29:01;9.10;;;8.50;;
2622;SDS011;1321;48.690;9.022;2023-02-28T14:31:44;10.17;;;8.90;;
2622;SDS011;1321;48.690;9.022;2023-02-28T14:34:26;11.30;;;10.40;;
2622;SDS011;1321;48.690;9.022;2023-02-28T14:37:05;10.40;;;9.47;;
2622;SDS011;1321;48.690;9.022;2023-02-28T14:39:35;9.57;;;8.47;;
2622;SDS011;1321;48.690;9.022;2023-02-28T14:42:24;8.73;;;7.93;;
2622;SDS011;1321;48.690;9.022;2023-02-28T14:44:56;8.70;;;8.00;;
2622;SDS011;1321;48.690;9.022;2023-02-28T14:47:25;9.90;;;8.90;;
2622;SDS011;1321;48.690;9.022;2023-02-28T14:49:56;9.60;;;8.83;;
2622;SDS011;1321;48.690;9.022;2023-02-28T14:52:26;8.47;;;7.87;;
2622;SDS011;1321;48.690;9.022;2023-02-28T14:54:57;8.53;;;7.90;;
2622;SDS011;1321;48.690;9.022;2023-02-28T14:57:51;9.37;;;8.63;;
2622;SDS011;1321;48.690;9.022;2023-02-28T15:03:41;9.13;;;8.33;;
2622;SDS011;1321;48.690;9.022;2023-02-28T15:06:14;8.83;;;8.13;;
2622;SDS011;1321;48.690;9.022;2023-02-28T15:09:14;11.07;;;9.07;;
2622;SDS011;1321;48.690;9.022;2023-02-28T15:11:51;9.17;;;8.37;;
2622;SDS011;1321;48.690;9.022;2023-02-28T15:14:21;9.83;;;9.03;;
2622;SDS011;1321;48.690;9.022;2023-02-28T15:17:19;9.63;;;8.47;;
2622;SDS011;1321;48.690;9.022;2023-02-28T15:19:52;9.00;;;8.30;;
2622;SDS011;1321;48.690;9.022;2023-02-28T15:22:23;10.73;;;9.83;;
2622;SDS011;1321;48.690;9.022;2023-02-28T15:24:56;9.60;;;8.70;;
2622;SDS011;1321;48.690;9.022;2023-02-28T15:27:26;9.63;;;8.73;;
2622;SDS011;1321;48.690;9.022;2023-02-28T15:29:59;9.47;;;8.47;;
2622;SDS011;1321;48.690;9.022;2023-02-28T15:32:32;10.20;;;9.20;;
2622;SDS011;1321;48.690;9.022;2023-02-28T15:35:16;9.67;;;8.80;;
2622;SDS011;1321;48.690;9.022;2023-02-28T15:37:47;8.73;;;7.83;;
2622;SDS011;1321;48.690;9.022;2023-02-28T15:40:23;9.33;;;8.53;;
2622;SDS011;1321;48.690;9.022;2023-02-28T15:43:00;10.80;;;8.87;;
2622;SDS011;1321;48.690;9.022;2023-02-28T15:45:33;9.10;;;8.27;;
2622;SDS011;1321;48.690;9.022;2023-02-28T15:48:05;10.27;;;8.37;;
2622;SDS011;1321;48.690;9.022;2023-02-28T15:50:40;10.27;;;9.17;;
2622;SDS011;1321;48.690;9.022;2023-02-28T15:53:12;8.80;;;8.10;;
2622;SDS011;1321;48.690;9.022;2023-02-28T15:55:43;10.17;;;9.27;;
2622;SDS011;1321;48.690;9.022;2023-02-28T15:58:21;8.60;;;7.80;;
2622;SDS011;1321;48.690;9.022;2023-02-28T16:01:00;10.02;;;9.13;;
2622;SDS011;1321;48.690;9.022;2023-02-28T16:03:39;9.60;;;8.80;;
2622;SDS011;1321;48.690;9.022;2023-02-28T16:09:09;10.00;;;8.67;;
2622;SDS011;1321;48.690;9.022;2023-02-28T16:11:40;8.77;;;7.93;;
2622;SDS011;1321;48.690;9.022;2023-02-28T16:14:14;8.40;;;7.70;;
2622;SDS011;1321;48.690;9.022;2023-02-28T16:16:45;9.43;;;8.60;;
2622;SDS011;1321;48.690;9.022;2023-02-28T16:19:16;9.83;;;8.23;;
2622;SDS011;1321;48.690;9.022;2023-02-28T16:21:44;9.37;;;8.43;;
2622;SDS011;1321;48.690;9.022;2023-02-28T16:24:13;9.03;;;8.23;;